Time;durP1;ratioP1;P1;durP2;ratioP2;P2;SDS_P1;SDS_P2;PMS_P1;PMS_P2;Temp;Humidity;BMP_temperature;BMP_pressure;BME280_temperature;BME280_humidity;BME280_pressure;Samples;Min_cycle;Max_cycle;Signal;HPM_P1;HPM_P2
2022/03/30 00:01:02;;;;;;;24.70;11.50;;;21.70;52.80;;;;;;215574;1299;25299;-56
2022/03/30 00:06:07;;;;;;;22.90;10.30;;;21.70;52.50;;;;;;215816;1294;22713;-54
2022/03/30 00:11:11;;;;;;;24.60;9.70;;;21.80;55.60;;;;;;216030;1294;24311;-57
2022/03/30 00:16:15;;;;;;;22.90;10.40;;;21.90;55.70;;;;;;216146;1294;22614;-55
2022/03/30 00:21:19;;;;;;;21.70;10.40;;;21.90;55.10;;;;;;216156;1294;22562;-58
2022/03/30 00:26:22;;;;;;;23.20;10.50;;;21.90;54.60;;;;;;216072;1293;25292;-58
2022/03/30 00:31:27;;;;;;;17.10;10.00;;;21.80;54.30;;;;;;216162;1294;24273;-56
2022/03/30 00:36:31;;;;;;;19.50;10.60;;;21.80;54.40;;;;;;216191;1292;23879;-56
2022/03/30 00:41:35;;;;;;;18.90;9.90;;;21.80;54.00;;;;;;215856;1293;25401;-54
2022/03/30 00:46:41;;;;;;;18.80;10.10;;;21.70;54.10;;;;;;216089;1294;22586;-59
2022/03/30 00:51:45;;;;;;;17.60;9.40;;;21.60;53.30;;;;;;215917;1293;22697;-53
2022/03/30 00:56:52;;;;;;;18.10;9.10;;;21.50;53.70;;;;;;216015;1293;22566;-57
2022/03/30 01:02:04;;;;;;;18.00;9.80;;;21.50;53.80;;;;;;215984;1293;22735;-57
2022/03/30 01:07:09;;;;;;;18.70;9.20;;;21.50;53.70;;;;;;215506;1293;23970;-54
2022/03/30 01:12:16;;;;;;;16.00;8.80;;;21.40;54.00;;;;;;215974;1294;24415;-57
2022/03/30 01:17:29;;;;;;;16.20;9.30;;;21.40;53.70;;;;;;216138;1294;22820;-55
2022/03/30 01:22:33;;;;;;;16.70;9.10;;;21.30;53.50;;;;;;215728;1294;24265;-57
2022/03/30 01:27:37;;;;;;;16.50;8.60;;;21.30;53.50;;;;;;216186;1294;24251;-56
2022/03/30 01:32:42;;;;;;;15.50;8.50;;;21.30;53.90;;;;;;216107;1294;23075;-56
2022/03/30 01:37:46;;;;;;;20.40;8.90;;;21.30;53.30;;;;;;216205;1292;22607;-56
2022/03/30 01:42:50;;;;;;;16.90;8.80;;;21.30;53.00;;;;;;215928;1294;22607;-55
2022/03/30 01:47:57;;;;;;;15.30;8.40;;;21.40;53.30;;;;;;215991;1294;26535;-56
2022/03/30 01:53:01;;;;;;;14.70;7.60;;;21.40;53.30;;;;;;215776;1293;25286;-57
2022/03/30 01:58:05;;;;;;;17.50;8.40;;;21.40;54.50;;;;;;215663;1296;22602;-59
2022/03/30 02:03:10;;;;;;;17.60;9.50;;;21.40;52.60;;;;;;215998;1294;24364;-56
2022/03/30 02:08:28;;;;;;;14.70;8.10;;;21.40;52.80;;;;;;215987;1293;25336;-59
2022/03/30 02:13:45;;;;;;;14.10;7.80;;;21.40;52.60;;;;;;215983;1293;24481;-55
2022/03/30 02:18:49;;;;;;;15.10;8.30;;;21.40;52.00;;;;;;215549;1293;24345;-53
2022/03/30 02:23:52;;;;;;;15.10;7.90;;;21.40;51.90;;;;;;216026;1294;22560;-55
2022/03/30 02:28:56;;;;;;;13.30;7.50;;;21.50;52.30;;;;;;215809;1293;25525;-57
2022/03/30 02:34:00;;;;;;;14.00;7.80;;;21.40;53.20;;;;;;215860;1293;25283;-56
2022/03/30 02:39:05;;;;;;;12.00;7.70;;;21.40;51.90;;;;;;216065;1293;22570;-57
2022/03/30 02:44:09;;;;;;;14.50;8.00;;;21.40;52.00;;;;;;216072;1294;24602;-56
2022/03/30 02:49:12;;;;;;;12.30;7.10;;;21.40;52.40;;;;;;216085;1293;22642;-55
2022/03/30 02:54:16;;;;;;;12.40;7.40;;;21.40;51.70;;;;;;216111;1293;22579;-55
2022/03/30 02:59:20;;;;;;;13.20;7.90;;;21.40;51.40;;;;;;215999;1293;22555;-56
2022/03/30 03:04:23;;;;;;;12.90;7.40;;;21.40;51.50;;;;;;215978;1293;25394;-56
2022/03/30 03:09:27;;;;;;;11.60;7.40;;;21.40;51.50;;;;;;216109;1293;22625;-58
2022/03/30 03:14:30;;;;;;;13.40;8.00;;;21.30;51.40;;;;;;216189;1293;22607;-57
2022/03/30 03:19:34;;;;;;;13.00;7.30;;;21.40;51.50;;;;;;215868;1294;22573;-57
2022/03/30 03:24:38;;;;;;;14.00;7.70;;;21.40;50.90;;;;;;215919;1294;24301;-55
2022/03/30 03:29:41;;;;;;;10.40;6.80;;;21.40;51.30;;;;;;216151;1294;22589;-58
2022/03/30 03:34:45;;;;;;;14.00;7.20;;;21.30;51.20;;;;;;215971;1294;25286;-55
2022/03/30 03:39:49;;;;;;;12.50;6.90;;;21.30;51.60;;;;;;215775;1293;26547;-55
2022/03/30 03:44:53;;;;;;;14.50;8.00;;;21.30;50.90;;;;;;215951;1293;25298;-53
2022/03/30 03:49:57;;;;;;;13.00;7.70;;;21.30;51.00;;;;;;216019;1293;25374;-56
2022/03/30 03:55:03;;;;;;;11.30;7.30;;;21.30;51.00;;;;;;215989;1294;23949;-57
2022/03/30 04:00:09;;;;;;;10.30;6.70;;;21.30;51.50;;;;;;216187;1294;25416;-56
2022/03/30 04:05:15;;;;;;;13.40;8.20;;;21.30;51.60;;;;;;216080;1293;24340;-56
2022/03/30 04:10:19;;;;;;;11.30;6.60;;;21.30;51.10;;;;;;215677;1293;25156;-56
2022/03/30 04:15:23;;;;;;;10.70;7.30;;;21.30;50.60;;;;;;215680;1293;22602;-55
2022/03/30 04:20:27;;;;;;;11.30;7.20;;;21.30;50.40;;;;;;216206;1293;25249;-56
2022/03/30 04:25:30;;;;;;;9.50;6.70;;;21.20;50.10;;;;;;215931;1294;25286;-56
2022/03/30 04:30:34;;;;;;;10.40;6.80;;;21.20;50.30;;;;;;215573;1293;25360;-55
2022/03/30 04:35:38;;;;;;;11.70;6.80;;;21.10;50.50;;;;;;216150;1294;25461;-57
2022/03/30 04:40:42;;;;;;;11.00;6.50;;;21.10;51.60;;;;;;215882;1293;25292;-53
2022/03/30 04:45:45;;;;;;;11.10;6.70;;;21.00;51.30;;;;;;215128;1296;396123;-56
2022/03/30 04:50:50;;;;;;;12.20;7.00;;;21.00;51.60;;;;;;216111;1294;22599;-52
2022/03/30 04:55:53;;;;;;;11.80;7.00;;;21.00;51.80;;;;;;216285;1293;24470;-56
2022/03/30 05:00:57;;;;;;;10.20;6.90;;;20.90;51.60;;;;;;215924;1293;22739;-55
2022/03/30 05:06:01;;;;;;;12.20;7.10;;;20.90;51.60;;;;;;215899;1293;25290;-54
2022/03/30 05:11:06;;;;;;;13.30;6.90;;;20.90;51.70;;;;;;216098;1294;22576;-57
2022/03/30 05:16:09;;;;;;;10.90;6.60;;;20.90;51.60;;;;;;215958;1294;24921;-56
2022/03/30 05:21:14;;;;;;;12.20;6.80;;;20.90;51.30;;;;;;215838;1294;24258;-57
2022/03/30 05:26:18;;;;;;;9.60;6.30;;;20.90;51.60;;;;;;215598;1293;25347;-54
2022/03/30 05:31:21;;;;;;;10.40;6.60;;;20.90;51.00;;;;;;215963;1294;23900;-54
2022/03/30 05:36:26;;;;;;;9.40;6.30;;;21.00;51.70;;;;;;215790;1294;24266;-55
2022/03/30 05:41:30;;;;;;;10.40;6.40;;;20.90;50.90;;;;;;215848;1293;22638;-56
2022/03/30 05:46:39;;;;;;;14.30;6.70;;;21.00;51.30;;;;;;216216;1294;25258;-54
2022/03/30 05:51:44;;;;;;;12.80;6.20;;;21.00;50.90;;;;;;215951;1293;22586;-55
2022/03/30 05:57:00;;;;;;;11.30;6.40;;;21.00;50.80;;;;;;216042;1293;23973;-54
2022/03/30 06:02:06;;;;;;;13.90;6.20;;;21.10;52.60;;;;;;215821;1293;23962;-54
2022/03/30 06:07:10;;;;;;;14.50;6.00;;;21.10;52.50;;;;;;216006;1293;25442;-53
2022/03/30 06:12:13;;;;;;;9.00;5.80;;;21.10;52.10;;;;;;216041;1293;24520;-54
2022/03/30 06:17:18;;;;;;;10.50;6.00;;;21.10;52.00;;;;;;216157;1293;25292;-53
2022/03/30 06:22:23;;;;;;;10.60;6.20;;;21.20;52.00;;;;;;215647;1293;24305;-58
2022/03/30 06:27:27;;;;;;;11.00;5.90;;;21.20;51.90;;;;;;215424;1295;22573;-63
2022/03/30 06:32:31;;;;;;;13.10;6.10;;;21.20;52.20;;;;;;215978;1293;24282;-62
2022/03/30 06:37:36;;;;;;;15.70;6.80;;;21.20;52.20;;;;;;215364;1293;23231;-57
2022/03/30 06:42:44;;;;;;;13.60;6.30;;;21.10;52.10;;;;;;215717;1296;22564;-56
2022/03/30 06:47:47;;;;;;;14.00;6.80;;;21.20;52.20;;;;;;215542;1296;22733;-54
2022/03/30 06:52:51;;;;;;;19.40;7.10;;;21.20;52.20;;;;;;215937;1294;25350;-55
2022/03/30 06:57:55;;;;;;;16.40;6.30;;;21.20;52.90;;;;;;215923;1293;22743;-63
2022/03/30 07:02:59;;;;;;;16.10;7.00;;;21.20;52.30;;;;;;215957;1293;22595;-56
2022/03/30 07:13:26;;;;;;;14.20;6.40;;;21.20;52.50;;;;;;215558;1293;24301;-58
2022/03/30 07:18:30;;;;;;;14.60;6.30;;;21.10;52.50;;;;;;221242;1293;24265;-58
2022/03/30 07:23:34;;;;;;;17.20;6.60;;;21.10;51.70;;;;;;215843;1294;22590;-57
2022/03/30 07:28:38;;;;;;;13.30;6.20;;;21.10;52.00;;;;;;216119;1293;25298;-59
2022/03/30 07:33:41;;;;;;;13.40;6.10;;;21.20;52.00;;;;;;215969;1293;22600;-55
2022/03/30 07:38:45;;;;;;;10.30;6.00;;;21.20;51.80;;;;;;215695;1293;25166;-58
2022/03/30 07:43:49;;;;;;;12.40;7.00;;;21.20;52.10;;;;;;216246;1293;23932;-57
2022/03/30 07:48:53;;;;;;;14.40;7.30;;;21.20;52.20;;;;;;215924;1294;24466;-55
2022/03/30 07:53:56;;;;;;;15.10;7.30;;;21.20;51.80;;;;;;215920;1293;23862;-56
2022/03/30 07:59:00;;;;;;;14.50;7.50;;;21.10;51.50;;;;;;216017;1293;22742;-57
2022/03/30 08:04:03;;;;;;;13.30;7.20;;;21.20;51.40;;;;;;216084;1294;22936;-55
2022/03/30 08:09:07;;;;;;;11.40;6.80;;;21.20;51.00;;;;;;216113;1293;24484;-56
2022/03/30 08:14:12;;;;;;;12.10;6.60;;;21.30;51.00;;;;;;215689;1293;22780;-55
2022/03/30 08:19:15;;;;;;;11.00;6.80;;;21.30;50.90;;;;;;215990;1293;25299;-56
2022/03/30 08:24:21;;;;;;;13.10;7.00;;;21.30;50.60;;;;;;216034;1293;22560;-56
2022/03/30 08:29:25;;;;;;;14.10;6.70;;;21.30;50.60;;;;;;216248;1294;22566;-53
2022/03/30 08:34:30;;;;;;;15.10;7.60;;;21.40;50.80;;;;;;216135;1294;22880;-54
2022/03/30 08:39:38;;;;;;;12.30;6.10;;;21.40;50.50;;;;;;215970;1294;24087;-56
2022/03/30 08:44:46;;;;;;;10.00;5.90;;;21.40;51.20;;;;;;216171;1293;22623;-59
2022/03/30 08:49:50;;;;;;;14.70;6.80;;;21.50;51.20;;;;;;216186;1294;22589;-56
2022/03/30 08:54:57;;;;;;;16.70;7.20;;;21.50;51.40;;;;;;215909;1293;22564;-58
2022/03/30 09:00:09;;;;;;;20.40;6.80;;;21.50;54.00;;;;;;216196;1294;26034;-55
2022/03/30 09:05:22;;;;;;;18.60;6.70;;;21.60;53.30;;;;;;216221;1293;22564;-55
2022/03/30 09:10:36;;;;;;;21.20;7.40;;;21.60;52.70;;;;;;216226;1293;24319;-56
2022/03/30 09:15:42;;;;;;;15.20;6.20;;;21.60;52.00;;;;;;216382;1294;24588;-54
2022/03/30 09:20:51;;;;;;;18.90;6.20;;;21.60;52.20;;;;;;216330;1293;22880;-53
2022/03/30 09:25:58;;;;;;;16.70;6.90;;;21.60;52.30;;;;;;216234;1294;24341;-58
2022/03/30 09:31:02;;;;;;;24.50;6.60;;;21.70;54.20;;;;;;216163;1294;22823;-54
2022/03/30 09:36:26;;;;;;;13.10;6.10;;;21.70;55.10;;;;;;216172;1294;25308;-54
2022/03/30 09:41:51;;;;;;;29.60;7.80;;;21.70;54.70;;;;;;216064;1294;22631;-57
2022/03/30 09:46:58;;;;;;;51.90;8.20;;;21.80;54.60;;;;;;215455;1296;22683;-57
2022/03/30 09:52:28;;;;;;;50.50;7.90;;;21.90;55.10;;;;;;216014;1293;25276;-55
2022/03/30 09:57:32;;;;;;;29.40;7.50;;;22.00;55.70;;;;;;216061;1293;22567;-55
2022/03/30 10:02:40;;;;;;;30.80;7.20;;;22.00;56.80;;;;;;216181;1294;25301;-57
2022/03/30 10:07:45;;;;;;;30.10;9.20;;;22.10;56.30;;;;;;216171;1294;25364;-55
2022/03/30 10:12:49;;;;;;;26.70;7.10;;;22.10;58.30;;;;;;216259;1293;22589;-55
2022/03/30 10:17:53;;;;;;;29.10;6.70;;;22.20;57.20;;;;;;216021;1293;24300;-56
2022/03/30 10:23:19;;;;;;;23.30;6.90;;;22.20;55.40;;;;;;216115;1293;22731;-54
2022/03/30 10:28:25;;;;;;;21.60;6.20;;;22.20;54.10;;;;;;215968;1293;22582;-56
2022/03/30 10:33:30;;;;;;;29.70;8.00;;;22.20;53.70;;;;;;215997;1293;22638;-56
2022/03/30 10:38:34;;;;;;;19.30;6.30;;;22.30;53.80;;;;;;215870;1293;25524;-53
2022/03/30 10:43:38;;;;;;;22.90;6.90;;;22.50;53.10;;;;;;216102;1293;22639;-57
2022/03/30 10:48:41;;;;;;;16.10;6.90;;;22.50;52.90;;;;;;215967;1293;22663;-51
2022/03/30 10:53:47;;;;;;;20.50;6.30;;;22.50;53.00;;;;;;216082;1293;25404;-51
2022/03/30 10:58:55;;;;;;;19.10;6.60;;;22.50;53.50;;;;;;215930;1293;22784;-54
2022/03/30 11:04:00;;;;;;;21.00;5.70;;;22.50;53.60;;;;;;216076;1293;24467;-54
2022/03/30 11:09:07;;;;;;;19.30;6.40;;;22.50;53.50;;;;;;215795;1293;22616;-52
2022/03/30 11:14:34;;;;;;;19.60;6.70;;;22.50;53.10;;;;;;216044;1293;22566;-54
2022/03/30 11:19:47;;;;;;;14.50;5.30;;;22.50;53.30;;;;;;216032;1293;25525;-55
2022/03/30 11:25:19;;;;;;;13.10;6.30;;;22.50;53.70;;;;;;216136;1293;23967;-55
2022/03/30 11:30:25;;;;;;;15.90;6.00;;;22.40;53.50;;;;;;216173;1293;24940;-55
2022/03/30 11:35:34;;;;;;;14.00;6.60;;;22.40;53.10;;;;;;215773;1293;26692;-54
2022/03/30 11:40:42;;;;;;;11.70;5.70;;;22.30;53.20;;;;;;216026;1293;22658;-57
2022/03/30 11:45:47;;;;;;;11.50;5.20;;;22.40;52.60;;;;;;216188;1293;25467;-57
2022/03/30 11:50:56;;;;;;;11.40;5.00;;;22.40;52.80;;;;;;215892;1293;22585;-53
2022/03/30 11:56:08;;;;;;;13.20;5.10;;;22.40;52.30;;;;;;215920;1293;22582;-54
2022/03/30 12:01:13;;;;;;;12.50;5.20;;;22.40;52.20;;;;;;215971;1294;23153;-54
2022/03/30 12:06:18;;;;;;;9.10;5.10;;;22.30;52.20;;;;;;215785;1293;22589;-56
2022/03/30 12:11:23;;;;;;;10.90;5.60;;;22.30;52.10;;;;;;216069;1293;23021;-51
2022/03/30 12:16:28;;;;;;;12.90;5.20;;;22.30;52.00;;;;;;215965;1293;25404;-53
2022/03/30 12:21:38;;;;;;;10.90;5.20;;;22.20;52.20;;;;;;216068;1293;22563;-55
2022/03/30 12:26:42;;;;;;;10.70;4.90;;;22.20;51.80;;;;;;216258;1293;22560;-56
2022/03/30 12:32:00;;;;;;;7.80;5.30;;;22.30;51.70;;;;;;216238;1293;24447;-54
2022/03/30 12:37:06;;;;;;;11.30;4.80;;;22.20;51.60;;;;;;216022;1293;22581;-53
2022/03/30 12:42:23;;;;;;;9.30;4.30;;;22.20;51.20;;;;;;215849;1293;25250;-55
2022/03/30 12:47:30;;;;;;;10.60;5.10;;;22.20;51.10;;;;;;216049;1293;24369;-58
2022/03/30 12:52:40;;;;;;;11.90;5.10;;;22.20;50.90;;;;;;215957;1293;23975;-54
2022/03/30 12:58:18;;;;;;;12.20;4.60;;;22.20;51.20;;;;;;216153;1293;25366;-55
2022/03/30 13:03:29;;;;;;;11.20;4.20;;;22.20;50.70;;;;;;215947;1293;22567;-56
2022/03/30 13:08:40;;;;;;;11.40;4.60;;;22.20;50.80;;;;;;216045;1294;24265;-60
2022/03/30 13:13:51;;;;;;;9.20;4.70;;;22.10;50.70;;;;;;216075;1293;22754;-59
2022/03/30 13:19:04;;;;;;;7.90;4.20;;;22.10;50.80;;;;;;215979;1293;24347;-52
2022/03/30 13:24:17;;;;;;;8.80;4.70;;;22.10;50.80;;;;;;215630;1293;25299;-59
2022/03/30 13:29:22;;;;;;;9.20;4.60;;;22.00;50.80;;;;;;216039;1293;25286;-53
2022/03/30 13:34:26;;;;;;;10.20;4.90;;;22.00;50.90;;;;;;216077;1293;23020;-55
2022/03/30 13:39:30;;;;;;;7.90;4.80;;;21.90;51.00;;;;;;215659;1293;25553;-55
2022/03/30 13:44:34;;;;;;;9.00;5.00;;;21.90;51.50;;;;;;216107;1293;25280;-53
2022/03/30 13:49:44;;;;;;;9.30;4.30;;;21.90;49.80;;;;;;216083;1294;22564;-59
2022/03/30 13:54:48;;;;;;;10.00;4.40;;;21.90;50.50;;;;;;215833;1293;26542;-53
2022/03/30 13:59:56;;;;;;;10.10;4.40;;;21.90;51.00;;;;;;216256;1293;24269;-56
2022/03/30 14:05:00;;;;;;;8.10;4.60;;;21.90;50.20;;;;;;215827;1294;22586;-53
2022/03/30 14:10:04;;;;;;;10.60;4.10;;;21.80;50.50;;;;;;215968;1294;22665;-55
2022/03/30 14:15:08;;;;;;;9.70;4.10;;;21.80;51.20;;;;;;215851;1293;25464;-57
2022/03/30 14:20:12;;;;;;;8.10;4.00;;;21.90;51.80;;;;;;215935;1293;22959;-55
2022/03/30 14:25:18;;;;;;;5.80;3.80;;;21.80;51.70;;;;;;216334;1294;22591;-53
2022/03/30 14:30:21;;;;;;;13.10;4.70;;;21.80;51.70;;;;;;215263;1296;22562;-56
2022/03/30 14:35:29;;;;;;;12.70;4.30;;;21.80;51.70;;;;;;215271;1296;25515;-54
2022/03/30 14:40:33;;;;;;;7.00;4.00;;;22.00;52.10;;;;;;215696;1293;24360;-56
2022/03/30 14:45:37;;;;;;;10.20;4.70;;;22.00;51.90;;;;;;215661;1293;22660;-55
2022/03/30 14:50:41;;;;;;;8.90;4.00;;;22.00;52.00;;;;;;215499;1293;25362;-54
2022/03/30 14:55:46;;;;;;;9.30;3.80;;;22.00;52.30;;;;;;215582;1293;24296;-53
2022/03/30 15:00:49;;;;;;;7.00;4.00;;;22.00;52.40;;;;;;215462;1294;24254;-53
2022/03/30 15:05:57;;;;;;;12.30;3.80;;;22.00;52.90;;;;;;214964;1296;26310;-56
2022/03/30 15:11:13;;;;;;;9.60;4.30;;;22.00;52.80;;;;;;215838;1293;24412;-56
2022/03/30 15:16:34;;;;;;;12.60;4.90;;;22.00;53.00;;;;;;215561;1293;25427;-55
2022/03/30 15:21:38;;;;;;;9.70;4.30;;;21.90;53.00;;;;;;215428;1293;22572;-53
2022/03/30 15:26:47;;;;;;;10.60;4.40;;;21.90;52.00;;;;;;215217;1293;23071;-53
2022/03/30 15:31:52;;;;;;;16.50;5.30;;;22.00;53.80;;;;;;215846;1293;22580;-55
2022/03/30 15:36:57;;;;;;;18.00;5.40;;;22.00;53.70;;;;;;215760;1293;24852;-52
2022/03/30 15:42:04;;;;;;;10.90;4.60;;;21.90;53.70;;;;;;216054;1294;24299;-51
2022/03/30 15:47:29;;;;;;;8.30;4.80;;;21.90;54.00;;;;;;215712;1293;25312;-53
2022/03/30 15:52:41;;;;;;;12.70;6.50;;;21.90;54.00;;;;;;216126;1294;22564;-54
2022/03/30 15:57:48;;;;;;;21.90;9.10;;;21.90;54.20;;;;;;216225;1294;22741;-52
2022/03/30 16:03:22;;;;;;;20.10;8.60;;;21.90;55.50;;;;;;216126;1293;22713;-56
2022/03/30 16:09:05;;;;;;;20.90;10.30;;;21.90;57.00;;;;;;215620;1293;22587;-49
2022/03/30 16:14:21;;;;;;;20.20;12.00;;;21.90;59.40;;;;;;216117;1292;25426;-57
2022/03/30 16:19:52;;;;;;;27.20;13.50;;;22.00;58.60;;;;;;216070;1294;22562;-53
2022/03/30 16:25:34;;;;;;;117.20;33.90;;;21.90;58.30;;;;;;216210;1294;22570;-52
2022/03/30 16:31:10;;;;;;;109.50;33.70;;;21.80;58.10;;;;;;216033;1296;22582;-51
2022/03/30 16:36:57;;;;;;;90.00;28.10;;;21.90;58.40;;;;;;216165;1294;22808;-50
2022/03/30 16:42:27;;;;;;;69.70;23.90;;;22.00;58.90;;;;;;216179;1294;22579;-50
2022/03/30 16:47:44;;;;;;;70.10;25.20;;;22.00;59.00;;;;;;211894;1296;5376094;-52
2022/03/30 16:53:25;;;;;;;74.00;22.80;;;22.00;58.70;;;;;;215275;1296;24362;-46
2022/03/30 16:59:17;;;;;;;56.00;18.30;;;22.00;59.50;;;;;;215619;1294;22589;-47
2022/03/30 17:04:31;;;;;;;54.50;18.70;;;22.00;58.70;;;;;;214755;1294;22586;-52
2022/03/30 17:15:13;;;;;;;52.20;17.10;;;21.90;59.70;;;;;;215927;1293;25240;-52
2022/03/30 17:20:49;;;;;;;52.90;17.80;;;21.90;59.00;;;;;;215286;1297;25490;-49
2022/03/30 17:26:11;;;;;;;45.00;16.40;;;21.90;59.00;;;;;;215887;1294;25250;-49
2022/03/30 17:31:36;;;;;;;43.50;15.50;;;21.90;59.30;;;;;;215398;1296;24402;-49
2022/03/30 17:36:54;;;;;;;40.30;15.60;;;21.90;59.70;;;;;;215779;1296;22860;-49
2022/03/30 17:42:25;;;;;;;51.10;15.70;;;21.80;59.60;;;;;;215584;1294;28742;-47
2022/03/30 17:47:32;;;;;;;44.50;14.80;;;21.80;60.30;;;;;;215968;1294;22689;-50
2022/03/30 17:52:48;;;;;;;36.80;14.60;;;21.80;60.00;;;;;;215833;1294;22567;-55
2022/03/30 17:58:13;;;;;;;34.20;12.90;;;21.90;60.00;;;;;;216674;1294;22570;-50
2022/03/30 18:03:42;;;;;;;39.00;14.40;;;21.90;60.00;;;;;;215126;1296;22877;-51
2022/03/30 18:09:14;;;;;;;38.40;12.80;;;21.90;60.00;;;;;;215673;1293;24486;-49
2022/03/30 18:14:24;;;;;;;59.80;14.30;;;21.90;60.00;;;;;;215969;1293;23988;-49
2022/03/30 18:19:45;;;;;;;49.80;12.90;;;21.80;60.20;;;;;;215482;1293;24488;-50
2022/03/30 18:25:13;;;;;;;43.30;13.00;;;21.80;60.10;;;;;;215859;1294;22579;-51
2022/03/30 18:30:22;;;;;;;35.30;12.40;;;21.90;61.30;;;;;;215313;1297;25541;-52
2022/03/30 18:35:37;;;;;;;32.70;11.20;;;22.40;59.80;;;;;;215943;1294;25468;-50
2022/03/30 18:41:06;;;;;;;40.80;12.00;;;22.80;59.50;;;;;;215910;1294;24433;-48
2022/03/30 18:46:18;;;;;;;63.20;12.80;;;23.00;58.90;;;;;;216132;1294;24328;-53
2022/03/30 18:51:26;;;;;;;36.20;10.10;;;23.10;58.70;;;;;;216101;1293;23026;-48
2022/03/30 18:56:41;;;;;;;32.10;12.20;;;23.20;57.30;;;;;;215787;1294;25232;-53
2022/03/30 19:02:21;;;;;;;42.20;11.80;;;23.20;57.10;;;;;;216129;1294;22720;-50
2022/03/30 19:08:34;;;;;;;38.60;11.10;;;23.20;58.00;;;;;;216052;1294;23359;-49
2022/03/30 19:13:55;;;;;;;37.20;11.30;;;23.30;57.80;;;;;;215966;1294;26684;-53
2022/03/30 19:19:23;;;;;;;32.10;11.50;;;23.60;58.40;;;;;;215784;1294;22856;-52
2022/03/30 19:25:24;;;;;;;27.30;10.30;;;23.50;58.80;;;;;;215325;1293;24293;-49
2022/03/30 19:31:18;;;;;;;33.90;10.10;;;23.40;59.00;;;;;;215380;1294;22754;-56
2022/03/30 19:36:33;;;;;;;34.70;11.00;;;23.30;58.70;;;;;;216149;1294;22658;-52
2022/03/30 19:42:19;;;;;;;26.60;10.70;;;23.20;58.80;;;;;;215971;1294;22741;-49
2022/03/30 19:48:14;;;;;;;33.20;10.50;;;23.10;59.30;;;;;;216001;1294;24171;-51
2022/03/30 19:54:02;;;;;;;32.80;10.10;;;23.00;59.50;;;;;;215872;1294;25473;-49
2022/03/30 19:59:16;;;;;;;28.80;10.20;;;22.90;59.40;;;;;;216045;1294;25405;-51
2022/03/30 20:04:22;;;;;;;27.20;10.10;;;22.90;59.00;;;;;;215741;1294;22631;-53
2022/03/30 20:09:27;;;;;;;28.30;9.30;;;22.90;58.80;;;;;;215980;1294;22566;-50
2022/03/30 20:14:32;;;;;;;32.20;10.60;;;22.80;59.00;;;;;;215729;1293;24360;-53
2022/03/30 20:19:35;;;;;;;37.50;10.40;;;22.70;58.90;;;;;;215963;1293;22623;-50
2022/03/30 20:24:44;;;;;;;30.30;10.10;;;22.70;59.40;;;;;;215844;1293;25298;-49
2022/03/30 20:29:47;;;;;;;33.50;9.10;;;22.60;58.50;;;;;;215512;1296;24278;-47
2022/03/30 20:34:51;;;;;;;27.70;9.60;;;22.50;58.10;;;;;;215638;1293;25416;-46
2022/03/30 20:40:04;;;;;;;26.90;9.00;;;22.50;58.20;;;;;;215693;1293;24299;-46
2022/03/30 20:45:11;;;;;;;25.40;8.60;;;22.40;58.00;;;;;;215366;1293;22713;-48
2022/03/30 20:50:17;;;;;;;23.90;9.00;;;22.30;57.40;;;;;;215893;1293;24370;-47
2022/03/30 20:55:21;;;;;;;25.80;8.60;;;22.40;57.60;;;;;;215806;1293;22591;-46
2022/03/30 21:00:25;;;;;;;23.30;8.80;;;22.30;57.40;;;;;;215753;1294;25564;-50
2022/03/30 21:05:36;;;;;;;21.10;8.20;;;22.20;57.30;;;;;;215924;1294;22588;-49
2022/03/30 21:10:42;;;;;;;22.80;8.70;;;22.20;57.30;;;;;;215998;1293;24344;-48
2022/03/30 21:15:50;;;;;;;24.10;8.90;;;22.10;56.80;;;;;;215487;1296;24479;-48
2022/03/30 21:20:54;;;;;;;19.70;8.00;;;22.10;56.90;;;;;;216039;1294;22665;-47
2022/03/30 21:26:01;;;;;;;25.20;8.80;;;22.10;60.00;;;;;;215960;1294;23947;-45
2022/03/30 21:31:06;;;;;;;23.70;8.20;;;22.20;59.80;;;;;;216204;1296;24348;-50
2022/03/30 21:36:10;;;;;;;20.50;7.80;;;22.10;59.00;;;;;;216011;1294;23986;-48
2022/03/30 21:41:14;;;;;;;20.30;7.40;;;22.00;59.90;;;;;;216196;1293;23371;-47
2022/03/30 21:46:17;;;;;;;24.50;8.60;;;22.10;62.80;;;;;;216108;1294;24811;-53
2022/03/30 21:51:21;;;;;;;20.60;9.30;;;22.10;62.60;;;;;;215974;1294;23926;-48
2022/03/30 21:56:25;;;;;;;18.40;7.40;;;22.10;62.80;;;;;;216091;1294;22595;-48
2022/03/30 22:01:29;;;;;;;21.40;8.00;;;22.10;62.20;;;;;;216207;1294;25608;-50
2022/03/30 22:06:33;;;;;;;22.00;7.50;;;22.10;62.30;;;;;;215836;1293;23328;-52
2022/03/30 22:11:37;;;;;;;15.90;7.20;;;22.10;62.20;;;;;;216022;1293;24913;-49
2022/03/30 22:16:42;;;;;;;19.20;7.90;;;22.30;61.00;;;;;;216105;1294;22576;-50
2022/03/30 22:21:51;;;;;;;16.90;6.70;;;22.50;60.10;;;;;;216089;1294;25540;-49
2022/03/30 22:26:56;;;;;;;18.40;7.00;;;22.70;59.80;;;;;;216282;1293;22781;-47
2022/03/30 22:37:28;;;;;;;17.10;7.10;;;22.90;59.00;;;;;;215923;1294;25292;-49
2022/03/30 22:42:32;;;;;;;15.70;6.70;;;23.00;58.50;;;;;;216107;1293;25452;-48
2022/03/30 22:47:35;;;;;;;12.90;6.30;;;23.00;58.10;;;;;;216045;1294;25412;-48
2022/03/30 22:52:39;;;;;;;20.00;7.80;;;23.00;58.20;;;;;;216094;1293;26680;-47
2022/03/30 22:57:43;;;;;;;15.20;6.20;;;23.10;57.00;;;;;;215713;1293;24552;-46
2022/03/30 23:02:48;;;;;;;12.40;6.70;;;23.20;57.00;;;;;;216067;1294;24328;-51
2022/03/30 23:08:14;;;;;;;12.90;6.90;;;23.20;56.50;;;;;;216132;1293;24351;-48
2022/03/30 23:13:22;;;;;;;15.10;6.60;;;23.20;56.50;;;;;;215921;1293;22723;-51
2022/03/30 23:18:26;;;;;;;12.50;5.80;;;23.10;56.40;;;;;;215850;1293;24475;-49
2022/03/30 23:23:31;;;;;;;12.10;6.30;;;23.10;56.30;;;;;;215879;1294;22633;-46
2022/03/30 23:28:35;;;;;;;12.60;5.50;;;23.00;56.20;;;;;;215792;1293;24378;-51
2022/03/30 23:33:39;;;;;;;12.50;5.80;;;23.00;56.20;;;;;;215696;1293;22582;-47
2022/03/30 23:38:42;;;;;;;12.50;6.10;;;22.90;56.00;;;;;;215793;1293;22655;-48
2022/03/30 23:43:46;;;;;;;11.80;5.70;;;23.00;55.70;;;;;;215636;1293;22577;-47
2022/03/30 23:48:49;;;;;;;13.70;5.80;;;23.10;55.40;;;;;;215950;1293;25600;-48
2022/03/30 23:53:54;;;;;;;12.20;6.10;;;23.10;55.10;;;;;;216077;1293;25523;-50
2022/03/30 23:58:58;;;;;;;13.00;5.90;;;23.10;55.40;;;;;;216016;1293;22667;-47
